createdAt,value
2018-03-26T16:21:07.956Z,61.20
2018-03-26T16:23:35.340Z,60.77
2018-03-26T16:26:01.737Z,60.25
2018-03-26T16:28:28.782Z,59.88
2018-03-26T16:30:55.909Z,60.84
2018-03-26T16:33:22.193Z,60.69
2018-03-26T16:35:48.539Z,60.32
2018-03-26T16:38:16.949Z,60.45
2018-03-26T16:40:43.324Z,61.36
2018-03-26T16:43:09.724Z,60.57
2018-03-26T16:45:36.078Z,61.16
2018-03-26T16:48:02.396Z,60.38
2018-03-26T16:50:29.859Z,60.78
2018-03-26T16:52:56.968Z,61.57
2018-03-26T16:55:23.364Z,61.20
2018-03-26T16:57:49.728Z,61.91
2018-03-26T17:00:16.132Z,62.40
2018-03-26T17:02:42.465Z,62.80
2018-03-26T17:05:08.850Z,62.97
2018-03-26T17:07:36.078Z,64.10
2018-03-26T17:10:02.449Z,64.22
2018-03-26T17:12:29.637Z,64.10
2018-03-26T17:14:56.027Z,63.24
2018-03-26T17:17:22.438Z,63.77
2018-03-26T17:19:53.622Z,63.80
2018-03-26T17:22:20.087Z,63.68
2018-03-26T17:24:46.438Z,64.14
2018-03-26T17:27:13.592Z,64.27
2018-03-26T17:29:40.783Z,64.69
2018-03-26T17:32:07.377Z,65.18
2018-03-26T17:34:33.763Z,65.71
2018-03-26T17:37:00.143Z,64.76
2018-03-26T17:39:26.461Z,64.01
2018-03-26T17:41:52.826Z,64.37
2018-03-26T17:44:19.214Z,64.74
2018-03-26T17:46:45.577Z,64.36
2018-03-26T17:49:11.926Z,64.00
2018-03-26T17:51:38.271Z,63.96
2018-03-26T17:54:05.371Z,64.33
2018-03-26T17:56:31.682Z,64.63
2018-03-26T17:58:58.039Z,64.88
2018-03-26T18:01:24.335Z,64.76
2018-03-26T18:03:51.396Z,65.37
2018-03-26T18:06:17.841Z,64.75
2018-03-26T18:08:44.161Z,64.74
2018-03-26T18:11:10.451Z,65.30
2018-03-26T18:13:37.506Z,65.41
2018-03-26T18:16:04.852Z,64.62
2018-03-26T18:18:31.221Z,64.23
2018-03-26T18:20:57.534Z,63.90
2018-03-26T18:23:24.935Z,64.86
2018-03-26T18:25:52.089Z,65.46
2018-03-26T18:28:18.369Z,64.62
2018-03-26T18:30:45.395Z,64.17
2018-03-26T18:33:11.726Z,64.27
2018-03-26T18:35:38.926Z,64.72
2018-03-26T18:38:05.265Z,65.53
2018-03-26T18:40:31.613Z,65.95
2018-03-26T18:42:57.970Z,66.05
2018-03-26T18:45:24.376Z,65.98
2018-03-26T18:47:50.710Z,66.17
2018-03-26T18:50:17.019Z,65.66
2018-03-26T18:52:43.336Z,65.68
2018-03-26T18:55:09.687Z,66.21
2018-03-26T18:57:36.066Z,66.66
2018-03-26T19:00:03.219Z,67.23
2018-03-26T19:02:30.332Z,66.93
2018-03-26T19:04:56.747Z,66.78
2018-03-26T19:07:23.208Z,66.37
2018-03-26T19:09:49.525Z,66.42
2018-03-26T19:12:15.953Z,66.25
2018-03-26T19:14:42.241Z,67.25
2018-03-26T19:17:09.395Z,66.77
2018-03-26T19:19:35.750Z,66.56
2018-03-26T19:22:02.971Z,66.23
2018-03-26T19:24:30.045Z,66.02
2018-03-26T19:26:56.344Z,65.73
2018-03-26T19:29:23.426Z,65.69
2018-03-26T19:31:49.749Z,65.60
2018-03-26T19:34:16.840Z,66.25
2018-03-26T19:36:43.224Z,66.16
2018-03-26T19:39:10.288Z,66.31
2018-03-26T19:41:36.623Z,65.35
2018-03-26T19:44:02.919Z,65.15
2018-03-26T19:46:29.307Z,65.92
2018-03-26T19:48:55.683Z,66.11
2018-03-26T19:51:22.016Z,65.87
2018-03-26T19:53:48.279Z,66.04
2018-03-26T19:56:14.913Z,66.14
2018-03-26T19:58:41.258Z,67.18
2018-03-26T20:01:07.574Z,66.57
2018-03-26T20:03:34.129Z,66.21
2018-03-26T20:06:00.600Z,65.63
2018-03-26T20:08:27.009Z,65.76
2018-03-26T20:10:53.387Z,65.05
2018-03-26T20:13:20.418Z,65.46
2018-03-26T20:15:46.705Z,65.96
2018-03-26T20:18:13.024Z,66.30
2018-03-26T20:20:39.412Z,65.67
2018-03-26T20:23:06.538Z,65.31
2018-03-26T20:25:32.808Z,65.66
2018-03-26T20:27:59.061Z,65.12
2018-03-26T20:30:25.357Z,64.48
2018-03-26T20:32:51.695Z,64.25
2018-03-26T20:35:18.103Z,63.74
2018-03-26T20:37:44.389Z,63.96
2018-03-26T20:40:10.691Z,64.05
2018-03-26T20:42:37.774Z,63.56
2018-03-26T20:45:04.091Z,63.90
2018-03-26T20:47:30.390Z,64.03
2018-03-26T20:49:57.472Z,64.00
2018-03-26T20:52:24.510Z,64.00
2018-03-26T20:54:51.615Z,64.25
2018-03-26T20:57:17.906Z,63.94
2018-03-26T20:59:44.164Z,64.43
2018-03-26T21:02:10.494Z,64.64
2018-03-26T21:04:37.190Z,64.32
2018-03-26T21:07:04.280Z,64.45
2018-03-26T21:09:30.599Z,64.43
2018-03-26T21:11:56.941Z,64.57
2018-03-26T21:14:23.258Z,64.77
2018-03-26T21:16:49.560Z,65.22
2018-03-26T21:19:15.892Z,65.75
2018-03-26T21:21:42.937Z,65.71
2018-03-26T21:24:10.824Z,65.27
2018-03-26T21:26:37.117Z,64.83
2018-03-26T21:29:04.038Z,64.53
2018-03-26T21:31:30.342Z,64.58
2018-03-26T21:33:56.640Z,64.62
2018-03-26T21:36:23.671Z,64.25
2018-03-26T21:38:49.958Z,64.23
2018-03-26T21:41:16.270Z,64.31
2018-03-26T21:43:42.542Z,64.12
2018-03-26T21:46:08.840Z,64.19
2018-03-26T21:48:35.168Z,64.22
2018-03-26T21:51:01.472Z,64.29
2018-03-26T21:53:28.507Z,64.62
2018-03-26T21:55:54.791Z,64.56
2018-03-26T21:58:21.101Z,64.23
2018-03-26T22:00:47.345Z,63.26
2018-03-26T22:03:13.624Z,63.56
2018-03-26T22:05:39.899Z,63.95
2018-03-26T22:08:06.205Z,63.96
2018-03-26T22:10:33.267Z,63.97
2018-03-26T22:12:59.785Z,63.92
2018-03-26T22:15:33.096Z,64.16
2018-03-26T22:17:59.412Z,64.46
2018-03-26T22:20:26.475Z,64.12
2018-03-26T22:22:52.711Z,64.52
2018-03-26T22:25:19.042Z,64.90
2018-03-26T22:27:45.263Z,65.18
2018-03-26T22:30:12.569Z,65.45
2018-03-26T22:32:38.882Z,66.53
2018-03-26T22:35:05.147Z,67.05
2018-03-26T22:37:31.424Z,67.53
2018-03-26T22:39:57.660Z,68.22
2018-03-26T22:42:23.970Z,68.37
2018-03-26T22:44:50.317Z,68.81
2018-03-26T22:47:17.373Z,69.09
2018-03-26T22:49:43.650Z,69.16
2018-03-26T22:52:10.940Z,68.93
2018-03-26T22:54:37.182Z,68.33
2018-03-26T22:57:03.476Z,68.58
2018-03-26T22:59:30.522Z,68.55
2018-03-26T23:01:57.564Z,68.60
2018-03-26T23:04:23.899Z,68.69
2018-03-26T23:06:50.899Z,69.18
2018-03-26T23:09:17.255Z,68.49
2018-03-26T23:11:44.265Z,68.21
2018-03-26T23:14:10.575Z,67.39
2018-03-26T23:16:37.587Z,67.76
2018-03-26T23:19:03.941Z,66.65
2018-03-26T23:21:30.978Z,66.19
2018-03-26T23:23:57.291Z,66.13
2018-03-26T23:26:23.622Z,65.33
2018-03-26T23:28:49.959Z,66.39
2018-03-26T23:31:16.227Z,66.72
2018-03-26T23:33:42.570Z,67.95
2018-03-26T23:36:08.904Z,68.20
2018-03-26T23:38:35.236Z,67.65
2018-03-26T23:41:01.580Z,67.75
2018-03-26T23:43:27.867Z,67.73
2018-03-26T23:45:54.906Z,67.06
2018-03-26T23:48:21.288Z,67.12
2018-03-26T23:50:47.616Z,66.70
2018-03-26T23:53:13.928Z,66.83
2018-03-26T23:55:40.260Z,68.37
2018-03-26T23:58:06.595Z,68.10
